Terminal Aerodrome Forecast
Issued by NWS

Home | Current Version | Previous Version | Graphics & Text | Print | Product List | Glossary On
Versions: 1 2 3 4 5 6 7 8 9 10 11 12 13 14 15 16 17 18 19 20 21 22 23 24 25
000
FTUS43 KGRB 242233 AAA
TAFAUW
TAF AMD
KAUW 242233Z 2423/2518 12009KT 6SM -RA BR SCT009 OVC015
      TEMPO 2423/2424 3SM RA BR BKN009
     FM250000 10010KT 3SM RA BR BKN007 OVC012
      TEMPO 2500/2502 1 1/2SM RA BR
     FM250200 09009KT 3SM RA BR BKN004 WS012/16035KT
     FM250900 15007KT 2SM -RADZ BR BKN003 WS012/21040KT
     FM251500 24008G14KT P6SM VCSH BKN012=

USA.gov is the U.S. government's official web portal to all federal, state and local government web resources and services.